Time,TemperatureF,DewpointF,PressureIn,WindDirection,WindDirectionDegrees,WindSpeedMPH,WindSpeedGustMPH,Humidity,HourlyPrecipIn,Conditions,Clouds,dailyrainin,SoftwareType,DateUTC
2013-07-04 00:04:00,68.5,57.5,29.57,SSE,158,0.0,0.0,68,0.00,,---,0.00,VWS V14.00,2013-07-04 05:04:00,
2013-07-04 00:09:00,68.3,57.3,29.57,SSE,158,0.0,0.0,68,0.00,,---,0.00,VWS V14.00,2013-07-04 05:09:00,
2013-07-04 00:14:00,68.3,57.3,29.57,SSE,158,0.0,0.0,68,0.00,,---,0.00,VWS V14.00,2013-07-04 05:14:00,
2013-07-04 00:19:00,68.1,57.6,29.57,SSE,158,0.0,0.0,69,0.00,,---,0.00,VWS V14.00,2013-07-04 05:19:00,
2013-07-04 00:24:00,68.1,57.6,29.57,SSE,158,0.0,0.0,69,0.00,,---,0.00,VWS V14.00,2013-07-04 05:24:00,
2013-07-04 00:29:00,68.0,57.5,29.57,SSE,158,0.0,0.0,69,0.00,,---,0.00,VWS V14.00,2013-07-04 05:29:00,
2013-07-04 00:34:00,67.8,57.3,29.57,SSE,158,0.0,0.0,69,0.00,,---,0.00,VWS V14.00,2013-07-04 05:34:00,
2013-07-04 00:39:00,67.8,57.3,29.58,SSE,158,0.0,0.0,69,0.00,,---,0.00,VWS V14.00,2013-07-04 05:39:00,
2013-07-04 00:44:00,67.6,57.5,29.58,SSE,158,0.0,0.0,70,0.00,,---,0.00,VWS V14.00,2013-07-04 05:44:00,
2013-07-04 00:49:00,67.6,57.5,29.58,SSE,158,0.0,0.0,70,0.00,,---,0.00,VWS V14.00,2013-07-04 05:49:00,
2013-07-04 00:54:00,67.4,57.7,29.58,SSE,158,0.0,0.0,71,0.00,,---,0.00,VWS V14.00,2013-07-04 05:54:00,
2013-07-04 00:59:00,67.2,57.9,29.57,SSE,158,0.0,0.0,72,0.00,,---,0.00,VWS V14.00,2013-07-04 05:59:00,
2013-07-04 01:04:00,67.2,57.9,29.57,SSE,158,0.0,0.0,72,0.00,,---,0.00,VWS V14.00,2013-07-04 06:04:00,
2013-07-04 01:09:00,67.2,57.9,29.57,SSE,158,0.0,0.0,72,0.00,,---,0.00,VWS V14.00,2013-07-04 06:09:00,
2013-07-04 01:14:00,67.1,57.8,29.57,SSE,158,0.0,2.6,72,0.00,,---,0.00,VWS V14.00,2013-07-04 06:14:00,
2013-07-04 01:19:00,66.9,57.6,29.56,SSE,158,0.0,0.0,72,0.00,,---,0.00,VWS V14.00,2013-07-04 06:19:00,
2013-07-04 01:24:00,66.7,57.4,29.56,SSE,158,0.0,1.7,72,0.00,,---,0.00,VWS V14.00,2013-07-04 06:24:00,
2013-07-04 01:29:00,66.7,57.8,29.56,SSE,158,0.0,0.0,73,0.00,,---,0.00,VWS V14.00,2013-07-04 06:29:00,
2013-07-04 01:34:00,66.5,57.6,29.57,SSE,158,0.0,0.0,73,0.00,,---,0.00,VWS V14.00,2013-07-04 06:34:00,
2013-07-04 01:39:00,66.5,57.6,29.57,South,180,1.3,1.3,73,0.00,,---,0.00,VWS V14.00,2013-07-04 06:39:00,
2013-07-04 01:44:00,66.3,57.4,29.57,South,180,0.0,0.0,73,0.00,,---,0.00,VWS V14.00,2013-07-04 06:44:00,
2013-07-04 01:49:00,66.3,57.4,29.57,South,180,0.0,0.0,73,0.00,,---,0.00,VWS V14.00,2013-07-04 06:49:00,
2013-07-04 01:54:00,66.2,57.3,29.57,South,180,0.0,0.0,73,0.00,,---,0.00,VWS V14.00,2013-07-04 06:54:00,
2013-07-04 01:59:00,66.0,57.1,29.57,SSE,158,0.0,0.0,73,0.00,,---,0.00,VWS V14.00,2013-07-04 06:59:00,
2013-07-04 02:04:00,66.0,57.5,29.57,SSE,158,0.0,0.0,74,0.00,,---,0.00,VWS V14.00,2013-07-04 07:04:00,
2013-07-04 02:09:00,66.0,57.5,29.57,SSE,158,0.0,0.0,74,0.00,,---,0.00,VWS V14.00,2013-07-04 07:09:00,
2013-07-04 02:14:00,66.0,57.5,29.57,SSE,158,0.0,0.0,74,0.00,,---,0.00,VWS V14.00,2013-07-04 07:14:00,
2013-07-04 02:19:00,66.0,57.1,29.57,SSE,158,0.0,0.0,73,0.00,,---,0.00,VWS V14.00,2013-07-04 07:19:00,
2013-07-04 02:24:00,65.8,57.3,29.57,SSE,158,0.0,0.0,74,0.00,,---,0.00,VWS V14.00,2013-07-04 07:24:00,
2013-07-04 02:29:00,65.8,57.3,29.57,SSE,158,0.0,0.0,74,0.00,,---,0.00,VWS V14.00,2013-07-04 07:29:00,
2013-07-04 02:34:00,65.8,57.3,29.57,SSE,158,0.0,0.0,74,0.00,,---,0.00,VWS V14.00,2013-07-04 07:34:00,
2013-07-04 02:39:00,65.6,57.1,29.57,SSE,158,1.3,1.3,74,0.00,,---,0.00,VWS V14.00,2013-07-04 07:39:00,
2013-07-04 02:44:00,65.4,56.9,29.57,SSE,158,0.0,0.0,74,0.00,,---,0.00,VWS V14.00,2013-07-04 07:44:00,
2013-07-04 02:49:00,65.4,56.9,29.57,SSE,158,0.0,0.0,74,0.00,,---,0.00,VWS V14.00,2013-07-04 07:49:00,
2013-07-04 02:54:00,65.4,56.9,29.56,SSE,158,0.0,0.0,74,0.00,,---,0.00,VWS V14.00,2013-07-04 07:54:00,
2013-07-04 02:59:00,65.4,56.9,29.56,SSE,158,0.0,0.0,74,0.00,,---,0.00,VWS V14.00,2013-07-04 07:59:00,
2013-07-04 03:04:00,65.4,56.9,29.56,SSE,158,0.0,0.0,74,0.00,,---,0.00,VWS V14.00,2013-07-04 08:04:00,
2013-07-04 03:09:00,65.3,56.8,29.56,SSE,158,0.0,0.0,74,0.00,,---,0.00,VWS V14.00,2013-07-04 08:09:00,
2013-07-04 03:14:00,65.3,56.8,29.56,SSE,158,0.0,0.0,74,0.00,,---,0.00,VWS V14.00,2013-07-04 08:14:00,
2013-07-04 03:19:00,65.3,56.8,29.56,SSE,158,0.0,0.0,74,0.00,,---,0.00,VWS V14.00,2013-07-04 08:19:00,
2013-07-04 03:24:00,65.1,56.6,29.56,SSE,158,0.0,0.0,74,0.00,,---,0.00,VWS V14.00,2013-07-04 08:24:00,
2013-07-04 03:29:00,65.1,56.6,29.56,SSE,158,0.0,0.0,74,0.00,,---,0.00,VWS V14.00,2013-07-04 08:29:00,
2013-07-04 03:34:00,65.1,56.6,29.56,SSE,158,0.0,0.0,74,0.00,,---,0.00,VWS V14.00,2013-07-04 08:34:00,
2013-07-04 03:39:00,65.1,56.6,29.56,SSE,158,0.0,0.0,74,0.00,,---,0.00,VWS V14.00,2013-07-04 08:39:00,
2013-07-04 03:44:00,64.9,56.4,29.56,SSE,158,0.0,0.0,74,0.00,,---,0.00,VWS V14.00,2013-07-04 08:44:00,
2013-07-04 03:49:00,64.9,56.4,29.56,SSE,158,0.0,0.0,74,0.00,,---,0.00,VWS V14.00,2013-07-04 08:49:00,
2013-07-04 03:54:00,64.9,56.8,29.57,SSE,158,0.0,0.0,75,0.00,,---,0.00,VWS V14.00,2013-07-04 08:54:00,
2013-07-04 03:59:00,64.7,56.6,29.57,SSE,158,0.0,0.0,75,0.00,,---,0.00,VWS V14.00,2013-07-04 08:59:00,
2013-07-04 04:04:00,64.7,56.6,29.56,SSE,158,0.0,0.0,75,0.00,,---,0.00,VWS V14.00,2013-07-04 09:04:00,
2013-07-04 04:09:00,64.7,56.6,29.57,SSE,158,0.0,0.0,75,0.00,,---,0.00,VWS V14.00,2013-07-04 09:09:00,
2013-07-04 04:14:00,64.7,56.6,29.57,SSE,158,0.0,0.0,75,0.00,,---,0.00,VWS V14.00,2013-07-04 09:14:00,
2013-07-04 04:19:00,64.7,56.6,29.57,SSE,158,0.0,0.0,75,0.00,,---,0.00,VWS V14.00,2013-07-04 09:19:00,
2013-07-04 04:24:00,64.5,56.4,29.57,SSE,158,0.0,0.0,75,0.00,,---,0.00,VWS V14.00,2013-07-04 09:24:00,
2013-07-04 04:29:00,64.5,56.4,29.57,SSE,158,0.0,0.0,75,0.00,,---,0.00,VWS V14.00,2013-07-04 09:29:00,
2013-07-04 04:34:00,64.5,56.4,29.57,SSE,158,0.0,0.0,75,0.00,,---,0.00,VWS V14.00,2013-07-04 09:34:00,
2013-07-04 04:39:00,64.5,56.4,29.58,SSE,158,0.0,0.0,75,0.00,,---,0.00,VWS V14.00,2013-07-04 09:39:00,
2013-07-04 04:44:00,64.2,56.1,29.57,SSE,158,0.0,0.0,75,0.00,,---,0.00,VWS V14.00,2013-07-04 09:44:00,
2013-07-04 04:49:00,64.2,56.1,29.57,SSE,158,3.3,3.3,75,0.00,,---,0.00,VWS V14.00,2013-07-04 09:49:00,
2013-07-04 04:54:00,64.0,56.3,29.57,SSE,158,4.2,4.2,76,0.00,,---,0.00,VWS V14.00,2013-07-04 09:54:00,
2013-07-04 04:59:00,64.0,56.7,29.57,SSE,158,2.0,2.0,77,0.00,,---,0.00,VWS V14.00,2013-07-04 09:59:00,
2013-07-04 05:04:00,64.0,56.7,29.57,SSE,158,2.6,2.6,77,0.00,,---,0.00,VWS V14.00,2013-07-04 10:04:00,
2013-07-04 05:09:00,64.0,57.0,29.57,SSE,158,0.0,3.1,78,0.00,,---,0.00,VWS V14.00,2013-07-04 10:09:00,
2013-07-04 05:14:00,64.0,57.0,29.57,SSE,158,0.0,5.1,78,0.00,,---,0.00,VWS V14.00,2013-07-04 10:14:00,
2013-07-04 05:19:00,64.0,57.0,29.58,SSE,158,1.7,2.0,78,0.00,,---,0.00,VWS V14.00,2013-07-04 10:19:00,
2013-07-04 05:24:00,64.0,57.0,29.58,SSE,158,5.8,5.8,78,0.00,,---,0.00,VWS V14.00,2013-07-04 10:24:00,
2013-07-04 05:29:00,64.0,57.0,29.58,SSE,158,2.2,2.2,78,0.00,,---,0.00,VWS V14.00,2013-07-04 10:29:00,
2013-07-04 05:34:00,64.0,57.0,29.58,SSE,158,0.0,0.0,78,0.00,,---,0.00,VWS V14.00,2013-07-04 10:34:00,
2013-07-04 05:39:00,63.8,56.8,29.58,SSE,158,0.0,0.0,78,0.00,,---,0.00,VWS V14.00,2013-07-04 10:39:00,
2013-07-04 05:44:00,63.8,56.8,29.58,SSE,158,0.0,0.0,78,0.00,,---,0.00,VWS V14.00,2013-07-04 10:44:00,
2013-07-04 05:49:00,63.8,56.8,29.58,SSE,158,0.0,0.0,78,0.00,,---,0.00,VWS V14.00,2013-07-04 10:49:00,
2013-07-04 05:54:00,64.0,57.0,29.58,SSE,158,0.0,0.0,78,0.00,,---,0.00,VWS V14.00,2013-07-04 10:54:00,
2013-07-04 05:59:00,64.2,57.6,29.58,SSE,158,0.0,0.0,79,0.00,,---,0.00,VWS V14.00,2013-07-04 10:59:00,
2013-07-04 06:04:00,64.5,57.8,29.58,SSE,158,0.0,0.0,79,0.00,,---,0.00,VWS V14.00,2013-07-04 11:04:00,
2013-07-04 06:09:00,64.4,57.8,29.58,SSE,158,0.0,0.0,79,0.00,,---,0.00,VWS V14.00,2013-07-04 11:09:00,
2013-07-04 06:14:00,64.5,57.5,29.58,SSE,158,0.0,0.0,78,0.00,,---,0.00,VWS V14.00,2013-07-04 11:14:00,
2013-07-04 06:19:00,64.7,57.7,29.59,SSE,158,0.0,0.0,78,0.00,,---,0.00,VWS V14.00,2013-07-04 11:19:00,
2013-07-04 06:24:00,64.9,57.9,29.58,SSE,158,0.0,0.0,78,0.00,,---,0.00,VWS V14.00,2013-07-04 11:24:00,
2013-07-04 06:29:00,65.1,58.1,29.58,SSE,158,0.0,0.0,78,0.00,,---,0.00,VWS V14.00,2013-07-04 11:29:00,
2013-07-04 06:34:00,65.3,58.3,29.59,SSE,158,0.0,0.0,78,0.00,,---,0.00,VWS V14.00,2013-07-04 11:34:00,
2013-07-04 06:39:00,65.4,58.4,29.58,SSE,158,0.0,0.0,78,0.00,,---,0.00,VWS V14.00,2013-07-04 11:39:00,
2013-07-04 06:44:00,65.8,58.8,29.59,SSE,158,0.0,0.0,78,0.00,,---,0.00,VWS V14.00,2013-07-04 11:44:00,
2013-07-04 06:49:00,66.0,59.0,29.58,SSE,158,0.0,0.0,78,0.00,,---,0.00,VWS V14.00,2013-07-04 11:49:00,
2013-07-04 06:54:00,66.3,59.2,29.59,SSE,158,0.0,0.0,78,0.00,,---,0.00,VWS V14.00,2013-07-04 11:54:00,
2013-07-04 06:59:00,66.3,59.2,29.59,SSE,158,0.0,0.0,78,0.00,,---,0.00,VWS V14.00,2013-07-04 11:59:00,
2013-07-04 07:04:00,66.7,59.6,29.59,SSE,158,0.0,0.0,78,0.00,,---,0.00,VWS V14.00,2013-07-04 12:04:00,
2013-07-04 07:09:00,66.9,59.8,29.60,SSE,158,0.6,0.6,78,0.00,,---,0.00,VWS V14.00,2013-07-04 12:09:00,
2013-07-04 07:14:00,67.2,59.8,29.60,SSE,158,0.0,0.0,77,0.00,,---,0.00,VWS V14.00,2013-07-04 12:14:00,
2013-07-04 07:19:00,67.6,60.1,29.60,SSE,158,0.0,1.5,77,0.00,,---,0.00,VWS V14.00,2013-07-04 12:19:00,
2013-07-04 07:24:00,67.8,60.3,29.60,SSE,158,0.0,0.0,77,0.00,,---,0.00,VWS V14.00,2013-07-04 12:24:00,
2013-07-04 07:29:00,68.1,60.6,29.60,SSE,158,0.0,0.0,77,0.00,,---,0.00,VWS V14.00,2013-07-04 12:29:00,
2013-07-04 07:34:00,68.3,60.8,29.61,SSE,158,0.0,0.0,77,0.00,,---,0.00,VWS V14.00,2013-07-04 12:34:00,
2013-07-04 07:39:00,68.7,61.2,29.61,SSE,158,0.0,0.0,77,0.00,,---,0.00,VWS V14.00,2013-07-04 12:39:00,
2013-07-04 07:44:00,69.2,61.7,29.61,SSE,158,0.0,0.0,77,0.00,,---,0.00,VWS V14.00,2013-07-04 12:44:00,
2013-07-04 07:49:00,69.6,62.1,29.60,SSE,158,0.0,0.0,77,0.00,,---,0.00,VWS V14.00,2013-07-04 12:49:00,
2013-07-04 07:54:00,70.1,62.2,29.61,South,180,0.0,0.0,76,0.00,,---,0.00,VWS V14.00,2013-07-04 12:54:00,
2013-07-04 07:59:00,70.5,62.6,29.61,SSE,158,0.0,0.0,76,0.00,,---,0.00,VWS V14.00,2013-07-04 12:59:00,
2013-07-04 08:04:00,71.2,63.3,29.60,SSE,158,0.0,0.0,76,0.00,,---,0.00,VWS V14.00,2013-07-04 13:04:00,
2013-07-04 08:09:00,71.7,63.7,29.60,SSE,158,0.0,0.0,76,0.00,,---,0.00,VWS V14.00,2013-07-04 13:09:00,
2013-07-04 08:14:00,72.5,64.1,29.60,SSE,158,0.0,0.0,75,0.00,,---,0.00,VWS V14.00,2013-07-04 13:14:00,
2013-07-04 08:19:00,73.2,64.8,29.61,SSE,158,0.0,0.0,75,0.00,,---,0.00,VWS V14.00,2013-07-04 13:19:00,
2013-07-04 08:24:00,73.7,64.9,29.61,SSE,158,0.0,0.0,74,0.00,,---,0.00,VWS V14.00,2013-07-04 13:24:00,
2013-07-04 08:29:00,74.4,65.2,29.60,SSE,158,0.0,0.0,73,0.00,,---,0.00,VWS V14.00,2013-07-04 13:29:00,
2013-07-04 08:34:00,75.0,65.4,29.60,SSE,158,0.0,1.3,72,0.00,,---,0.00,VWS V14.00,2013-07-04 13:34:00,
2013-07-04 08:39:00,75.5,65.8,29.60,South,180,0.0,0.0,72,0.00,,---,0.00,VWS V14.00,2013-07-04 13:39:00,
2013-07-04 08:44:00,76.2,65.7,29.60,SSW,202,2.6,2.6,70,0.00,,---,0.00,VWS V14.00,2013-07-04 13:44:00,
2013-07-04 08:49:00,76.8,65.9,29.60,SSW,202,0.0,0.0,69,0.00,,---,0.00,VWS V14.00,2013-07-04 13:49:00,
2013-07-04 08:54:00,77.3,66.3,29.60,South,180,0.0,0.0,69,0.00,,---,0.00,VWS V14.00,2013-07-04 13:54:00,
2013-07-04 08:59:00,77.9,66.5,29.60,South,180,2.2,2.2,68,0.00,,---,0.00,VWS V14.00,2013-07-04 13:59:00,
2013-07-04 09:04:00,78.6,66.7,29.61,SSE,158,3.3,3.3,67,0.00,,---,0.00,VWS V14.00,2013-07-04 14:04:00,
2013-07-04 09:09:00,78.8,66.5,29.61,South,180,0.0,0.0,66,0.00,,---,0.00,VWS V14.00,2013-07-04 14:09:00,
2013-07-04 09:14:00,79.3,67.0,29.60,SSW,202,0.0,0.0,66,0.00,,---,0.00,VWS V14.00,2013-07-04 14:14:00,
2013-07-04 09:19:00,79.8,67.4,29.60,SSE,158,1.5,1.5,66,0.00,,---,0.00,VWS V14.00,2013-07-04 14:19:00,
2013-07-04 09:24:00,80.4,67.6,29.60,South,180,0.0,2.0,65,0.00,,---,0.00,VWS V14.00,2013-07-04 14:24:00,
2013-07-04 09:29:00,80.7,66.9,29.60,SW,225,4.0,4.0,63,0.00,,---,0.00,VWS V14.00,2013-07-04 14:29:00,
2013-07-04 09:34:00,81.3,66.6,29.59,SSW,202,0.0,0.0,61,0.00,,---,0.00,VWS V14.00,2013-07-04 14:34:00,
2013-07-04 09:39:00,81.6,66.9,29.60,SW,225,1.5,1.5,61,0.00,,---,0.00,VWS V14.00,2013-07-04 14:39:00,
2013-07-04 09:44:00,82.0,67.2,29.60,SSW,202,0.0,0.0,61,0.00,,---,0.00,VWS V14.00,2013-07-04 14:44:00,
2013-07-04 09:49:00,82.5,67.7,29.60,SSE,158,2.2,2.2,61,0.00,,---,0.00,VWS V14.00,2013-07-04 14:49:00,
2013-07-04 09:54:00,82.9,67.6,29.60,SSW,202,3.3,6.9,60,0.00,,---,0.00,VWS V14.00,2013-07-04 14:54:00,
2013-07-04 09:59:00,83.3,67.5,29.60,South,180,0.0,0.0,59,0.00,,---,0.00,VWS V14.00,2013-07-04 14:59:00,
2013-07-04 10:04:00,83.8,68.0,29.59,SW,225,0.0,0.0,59,0.00,,---,0.00,VWS V14.00,2013-07-04 15:04:00,
2013-07-04 10:09:00,84.0,68.1,29.59,SSW,202,0.0,0.0,59,0.00,,---,0.00,VWS V14.00,2013-07-04 15:09:00,
2013-07-04 10:14:00,84.5,68.1,29.59,SSW,202,0.0,0.0,58,0.00,,---,0.00,VWS V14.00,2013-07-04 15:14:00,
2013-07-04 10:19:00,84.9,68.0,29.59,SSE,158,6.2,6.2,57,0.00,,---,0.00,VWS V14.00,2013-07-04 15:19:00,
2013-07-04 10:24:00,85.2,68.3,29.59,SSW,202,0.0,0.0,57,0.00,,---,0.00,VWS V14.00,2013-07-04 15:24:00,
2013-07-04 10:29:00,85.8,68.3,29.59,SW,225,0.0,0.0,56,0.00,,---,0.00,VWS V14.00,2013-07-04 15:29:00,
2013-07-04 10:34:00,86.0,68.5,29.59,SSW,202,0.0,5.5,56,0.00,,---,0.00,VWS V14.00,2013-07-04 15:34:00,
2013-07-04 10:39:00,86.3,68.2,29.60,SE,135,5.1,5.1,55,0.00,,---,0.00,VWS V14.00,2013-07-04 15:39:00,
2013-07-04 10:44:00,86.5,67.9,29.60,SSE,158,0.0,7.3,54,0.00,,---,0.00,VWS V14.00,2013-07-04 15:44:00,
2013-07-04 10:49:00,86.5,67.9,29.60,South,180,0.0,0.6,54,0.00,,---,0.00,VWS V14.00,2013-07-04 15:49:00,
2013-07-04 10:54:00,86.7,68.1,29.59,SSE,158,0.0,1.3,54,0.00,,---,0.00,VWS V14.00,2013-07-04 15:54:00,
2013-07-04 10:59:00,87.0,67.8,29.59,SSE,158,0.0,3.5,53,0.00,,---,0.00,VWS V14.00,2013-07-04 15:59:00,
2013-07-04 11:04:00,87.0,67.8,29.60,SSE,158,6.0,6.0,53,0.00,,---,0.00,VWS V14.00,2013-07-04 16:04:00,
2013-07-04 11:09:00,87.4,67.6,29.60,SSE,158,4.0,6.0,52,0.00,,---,0.00,VWS V14.00,2013-07-04 16:09:00,
2013-07-04 11:14:00,87.4,68.2,29.60,SSE,158,1.3,1.3,53,0.00,,---,0.00,VWS V14.00,2013-07-04 16:14:00,
2013-07-04 11:19:00,87.6,68.4,29.60,SSE,158,0.0,2.0,53,0.00,,---,0.00,VWS V14.00,2013-07-04 16:19:00,
2013-07-04 11:24:00,88.1,68.3,29.60,SE,135,4.4,4.4,52,0.00,,---,0.00,VWS V14.00,2013-07-04 16:24:00,
2013-07-04 11:29:00,88.1,67.7,29.59,SSE,158,1.5,5.1,51,0.00,,---,0.00,VWS V14.00,2013-07-04 16:29:00,
2013-07-04 11:34:00,88.1,67.7,29.60,SSE,158,0.0,1.5,51,0.00,,---,0.00,VWS V14.00,2013-07-04 16:34:00,
2013-07-04 11:39:00,88.3,68.5,29.59,South,180,0.0,0.0,52,0.00,,---,0.00,VWS V14.00,2013-07-04 16:39:00,
2013-07-04 11:44:00,88.8,68.9,29.60,SE,135,0.0,0.0,52,0.00,,---,0.00,VWS V14.00,2013-07-04 16:44:00,
2013-07-04 11:49:00,89.2,68.7,29.59,SSE,158,2.2,2.2,51,0.00,,---,0.00,VWS V14.00,2013-07-04 16:49:00,
2013-07-04 11:54:00,89.7,69.2,29.59,SSE,158,2.9,2.9,51,0.00,,---,0.00,VWS V14.00,2013-07-04 16:54:00,
2013-07-04 11:59:00,89.7,68.6,29.59,SSE,158,0.0,2.0,50,0.00,,---,0.00,VWS V14.00,2013-07-04 16:59:00,
2013-07-04 12:04:00,89.9,68.2,29.59,SSE,158,1.1,1.1,49,0.00,,---,0.00,VWS V14.00,2013-07-04 17:04:00,
2013-07-04 12:09:00,90.1,69.0,29.59,SSE,158,0.0,0.0,50,0.00,,---,0.00,VWS V14.00,2013-07-04 17:09:00,
2013-07-04 12:14:00,90.3,68.6,29.59,SSE,158,0.0,0.0,49,0.00,,---,0.00,VWS V14.00,2013-07-04 17:14:00,
2013-07-04 12:19:00,90.5,68.8,29.59,SSE,158,0.0,0.0,49,0.00,,---,0.00,VWS V14.00,2013-07-04 17:19:00,
2013-07-04 12:24:00,90.6,68.8,29.59,SSE,158,6.7,6.7,49,0.00,,---,0.00,VWS V14.00,2013-07-04 17:24:00,
2013-07-04 12:29:00,90.8,69.0,29.59,SE,135,0.0,0.0,49,0.00,,---,0.00,VWS V14.00,2013-07-04 17:29:00,
2013-07-04 12:34:00,91.0,68.6,29.59,SSE,158,0.0,0.0,48,0.00,,---,0.00,VWS V14.00,2013-07-04 17:34:00,
2013-07-04 12:39:00,91.2,68.8,29.59,WSW,248,2.9,2.9,48,0.00,,---,0.00,VWS V14.00,2013-07-04 17:39:00,
2013-07-04 12:44:00,91.4,68.3,29.58,WSW,248,5.3,5.3,47,0.00,,---,0.00,VWS V14.00,2013-07-04 17:44:00,
2013-07-04 12:49:00,91.5,68.4,29.58,SSE,158,0.0,8.2,47,0.00,,---,0.00,VWS V14.00,2013-07-04 17:49:00,
2013-07-04 12:54:00,91.0,67.4,29.58,WSW,248,3.3,3.3,46,0.00,,---,0.00,VWS V14.00,2013-07-04 17:54:00,
2013-07-04 12:59:00,90.3,66.7,29.58,SSE,158,5.1,7.3,46,0.00,,---,0.00,VWS V14.00,2013-07-04 17:59:00,
2013-07-04 13:04:00,89.4,65.9,29.58,SSE,158,2.6,6.9,46,0.00,,---,0.00,VWS V14.00,2013-07-04 18:04:00,
2013-07-04 13:09:00,88.8,66.0,29.58,WSW,248,0.0,1.7,47,0.00,,---,0.00,VWS V14.00,2013-07-04 18:09:00,
2013-07-04 13:14:00,88.8,66.6,29.58,SSE,158,0.4,1.5,48,0.00,,---,0.00,VWS V14.00,2013-07-04 18:14:00,
2013-07-04 13:19:00,88.7,65.9,29.58,SSE,158,0.8,0.8,47,0.00,,---,0.00,VWS V14.00,2013-07-04 18:19:00,
2013-07-04 13:24:00,88.3,66.7,29.58,WSW,248,1.3,1.3,49,0.00,,---,0.00,VWS V14.00,2013-07-04 18:24:00,
2013-07-04 13:29:00,88.5,66.9,29.58,SSE,158,0.0,4.2,49,0.00,,---,0.00,VWS V14.00,2013-07-04 18:29:00,
2013-07-04 13:34:00,88.5,66.3,29.58,WSW,248,7.1,8.5,48,0.00,,---,0.00,VWS V14.00,2013-07-04 18:34:00,
2013-07-04 13:39:00,88.5,66.9,29.58,WSW,248,0.0,3.5,49,0.00,,---,0.00,VWS V14.00,2013-07-04 18:39:00,
2013-07-04 13:44:00,88.5,66.3,29.58,WSW,248,8.2,8.2,48,0.00,,---,0.00,VWS V14.00,2013-07-04 18:44:00,
2013-07-04 13:49:00,88.5,66.3,29.58,WSW,248,0.0,0.0,48,0.00,,---,0.00,VWS V14.00,2013-07-04 18:49:00,
2013-07-04 13:54:00,88.5,66.3,29.58,WSW,248,2.4,4.2,48,0.00,,---,0.00,VWS V14.00,2013-07-04 18:54:00,
2013-07-04 13:59:00,88.7,66.5,29.57,WSW,248,9.1,9.1,48,0.00,,---,0.00,VWS V14.00,2013-07-04 18:59:00,
2013-07-04 14:04:00,88.8,66.0,29.57,WSW,248,0.0,5.1,47,0.00,,---,0.00,VWS V14.00,2013-07-04 19:04:00,
2013-07-04 14:09:00,88.7,66.5,29.57,WSW,248,6.0,6.0,48,0.00,,---,0.00,VWS V14.00,2013-07-04 19:09:00,
2013-07-04 14:14:00,88.5,66.3,29.58,SSE,158,4.4,6.2,48,0.00,,---,0.00,VWS V14.00,2013-07-04 19:14:00,
2013-07-04 14:19:00,87.9,65.8,29.57,WSW,248,4.6,4.6,48,0.00,,---,0.00,VWS V14.00,2013-07-04 19:19:00,
2013-07-04 14:24:00,87.6,65.5,29.57,WSW,248,0.0,0.0,48,0.00,,---,0.00,VWS V14.00,2013-07-04 19:24:00,
2013-07-04 14:29:00,87.6,66.1,29.57,WSW,248,0.0,3.8,49,0.00,,---,0.00,VWS V14.00,2013-07-04 19:29:00,
2013-07-04 14:34:00,87.6,66.1,29.56,WSW,248,1.5,1.5,49,0.00,,---,0.00,VWS V14.00,2013-07-04 19:34:00,
2013-07-04 14:39:00,87.6,66.1,29.57,WSW,248,2.9,2.9,49,0.00,,---,0.00,VWS V14.00,2013-07-04 19:39:00,
2013-07-04 14:45:00,87.6,65.5,29.57,WSW,248,3.8,6.4,48,0.00,,---,0.00,VWS V14.00,2013-07-04 19:45:00,
2013-07-04 14:50:00,87.6,66.1,29.56,WSW,248,4.9,6.7,49,0.00,,---,0.00,VWS V14.00,2013-07-04 19:50:00,
2013-07-04 14:55:00,87.6,65.5,29.57,WSW,248,10.0,10.0,48,0.00,,---,0.00,VWS V14.00,2013-07-04 19:55:00,
2013-07-04 15:00:00,87.2,65.1,29.56,SSE,158,3.3,3.3,48,0.00,,---,0.00,VWS V14.00,2013-07-04 20:00:00,
2013-07-04 15:05:00,86.5,63.9,29.56,SSE,158,2.9,2.9,47,0.00,,---,0.00,VWS V14.00,2013-07-04 20:05:00,
2013-07-04 15:10:00,86.1,64.1,29.56,WSW,248,0.0,0.0,48,0.00,,---,0.00,VWS V14.00,2013-07-04 20:10:00,
2013-07-04 15:15:00,85.6,64.3,29.56,SSE,158,6.4,9.3,49,0.00,,---,0.00,VWS V14.00,2013-07-04 20:15:00,
2013-07-04 15:20:00,85.2,63.9,29.56,WSW,248,0.0,0.0,49,0.00,,---,0.00,VWS V14.00,2013-07-04 20:20:00,
2013-07-04 15:25:00,85.2,64.5,29.55,WSW,248,2.6,2.6,50,0.00,,---,0.00,VWS V14.00,2013-07-04 20:25:00,
2013-07-04 15:26:00,85.1,63.8,29.55,WSW,248,0.0,2.6,49,0.00,,---,0.00,VWS V14.00,2013-07-04 20:26:00,
2013-07-04 15:31:00,85.2,64.5,29.55,SE,135,2.2,6.7,50,0.00,,---,0.00,VWS V14.00,2013-07-04 20:31:00,
2013-07-04 15:36:00,85.1,64.4,29.55,ESE,112,0.0,0.0,50,0.00,,---,0.00,VWS V14.00,2013-07-04 20:36:00,
2013-07-04 15:41:00,84.5,63.8,29.55,SSE,158,0.0,0.0,50,0.00,,---,0.00,VWS V14.00,2013-07-04 20:41:00,
2013-07-04 15:46:00,84.3,63.7,29.55,SE,135,1.1,1.1,50,0.00,,---,0.00,VWS V14.00,2013-07-04 20:46:00,
2013-07-04 15:51:00,84.3,63.7,29.55,ESE,112,0.0,0.0,50,0.00,,---,0.00,VWS V14.00,2013-07-04 20:51:00,
2013-07-04 15:56:00,84.0,63.9,29.55,ENE,68,0.0,2.9,51,0.00,,---,0.00,VWS V14.00,2013-07-04 20:56:00,
2013-07-04 16:01:00,84.0,63.4,29.54,SSE,158,5.8,5.8,50,0.00,,---,0.00,VWS V14.00,2013-07-04 21:01:00,
2013-07-04 16:06:00,84.0,63.9,29.55,SSE,158,5.1,5.3,51,0.00,,---,0.00,VWS V14.00,2013-07-04 21:06:00,
2013-07-04 16:11:00,83.8,63.8,29.55,SSE,158,0.0,0.0,51,0.00,,---,0.00,VWS V14.00,2013-07-04 21:11:00,
2013-07-04 16:16:00,83.4,63.4,29.54,SSE,158,0.0,0.0,51,0.00,,---,0.00,VWS V14.00,2013-07-04 21:16:00,
2013-07-04 16:21:00,83.4,63.4,29.54,SSE,158,0.0,0.0,51,0.00,,---,0.00,VWS V14.00,2013-07-04 21:21:00,
2013-07-04 16:26:00,83.8,64.3,29.55,ESE,112,0.0,1.7,52,0.00,,---,0.00,VWS V14.00,2013-07-04 21:26:00,
2013-07-04 16:31:00,83.8,63.8,29.55,ESE,112,0.0,0.0,51,0.00,,---,0.00,VWS V14.00,2013-07-04 21:31:00,
2013-07-04 16:36:00,83.4,63.4,29.54,SSE,158,0.0,0.0,51,0.00,,---,0.00,VWS V14.00,2013-07-04 21:36:00,
2013-07-04 16:41:00,83.4,63.4,29.54,SSE,158,2.6,2.9,51,0.00,,---,0.00,VWS V14.00,2013-07-04 21:41:00,
2013-07-04 16:46:00,83.4,64.0,29.54,SE,135,0.0,0.0,52,0.00,,---,0.00,VWS V14.00,2013-07-04 21:46:00,
2013-07-04 16:51:00,83.4,64.0,29.54,SSE,158,4.0,4.0,52,0.00,,---,0.00,VWS V14.00,2013-07-04 21:51:00,
2013-07-04 16:56:00,83.6,64.1,29.54,SSE,158,0.0,0.0,52,0.00,,---,0.00,VWS V14.00,2013-07-04 21:56:00,
2013-07-04 17:01:00,83.8,63.8,29.53,SE,135,0.0,0.0,51,0.00,,---,0.00,VWS V14.00,2013-07-04 22:01:00,
2013-07-04 17:06:00,83.8,64.3,29.54,SE,135,0.0,0.0,52,0.00,,---,0.00,VWS V14.00,2013-07-04 22:06:00,
2013-07-04 17:11:00,83.8,63.8,29.53,ESE,112,0.0,0.0,51,0.00,,---,0.00,VWS V14.00,2013-07-04 22:11:00,
2013-07-04 17:16:00,83.8,63.8,29.53,SE,135,0.0,0.0,51,0.00,,---,0.00,VWS V14.00,2013-07-04 22:16:00,
2013-07-04 17:21:00,83.8,63.8,29.53,SE,135,2.0,2.0,51,0.00,,---,0.00,VWS V14.00,2013-07-04 22:21:00,
2013-07-04 17:26:00,83.6,63.6,29.53,SSE,158,0.0,0.0,51,0.00,,---,0.00,VWS V14.00,2013-07-04 22:26:00,
2013-07-04 17:31:00,83.3,63.3,29.53,SSE,158,0.0,0.0,51,0.00,,---,0.00,VWS V14.00,2013-07-04 22:31:00,
2013-07-04 17:36:00,83.1,62.5,29.53,ESE,112,0.0,0.0,50,0.00,,---,0.00,VWS V14.00,2013-07-04 22:36:00,
2013-07-04 17:41:00,82.9,62.4,29.53,SSE,158,3.8,6.2,50,0.00,,---,0.00,VWS V14.00,2013-07-04 22:41:00,
2013-07-04 17:46:00,82.7,62.2,29.53,SSE,158,7.1,7.1,50,0.00,,---,0.00,VWS V14.00,2013-07-04 22:46:00,
2013-07-04 17:51:00,82.5,62.6,29.53,ESE,112,0.0,0.0,51,0.00,,---,0.00,VWS V14.00,2013-07-04 22:51:00,
2013-07-04 17:56:00,82.2,62.3,29.53,SE,135,0.0,0.0,51,0.00,,---,0.00,VWS V14.00,2013-07-04 22:56:00,
2013-07-04 18:01:00,82.2,62.3,29.53,SSE,158,0.0,0.0,51,0.00,,---,0.00,VWS V14.00,2013-07-04 23:01:00,
2013-07-04 18:06:00,82.0,62.1,29.53,SSE,158,0.0,0.0,51,0.00,,---,0.00,VWS V14.00,2013-07-04 23:06:00,
2013-07-04 18:11:00,82.0,62.7,29.53,SE,135,0.0,0.0,52,0.00,,---,0.00,VWS V14.00,2013-07-04 23:11:00,
2013-07-04 18:16:00,81.8,62.5,29.53,SSE,158,0.0,0.0,52,0.00,,---,0.00,VWS V14.00,2013-07-04 23:16:00,
2013-07-04 18:21:00,81.6,61.7,29.53,East,90,0.0,0.0,51,0.00,,---,0.00,VWS V14.00,2013-07-04 23:21:00,
2013-07-04 18:26:00,81.5,61.7,29.53,ESE,112,0.0,0.0,51,0.00,,---,0.00,VWS V14.00,2013-07-04 23:26:00,
2013-07-04 18:31:00,81.5,62.2,29.53,SE,135,0.0,0.0,52,0.00,,---,0.00,VWS V14.00,2013-07-04 23:31:00,
2013-07-04 18:36:00,81.1,61.8,29.53,SSE,158,0.0,0.0,52,0.00,,---,0.00,VWS V14.00,2013-07-04 23:36:00,
2013-07-04 18:41:00,81.1,61.8,29.53,SSE,158,0.0,0.0,52,0.00,,---,0.00,VWS V14.00,2013-07-04 23:41:00,
2013-07-04 18:46:00,80.9,61.6,29.53,ESE,112,0.0,0.0,52,0.00,,---,0.00,VWS V14.00,2013-07-04 23:46:00,
2013-07-04 18:51:00,80.7,61.5,29.53,SE,135,0.0,0.0,52,0.00,,---,0.00,VWS V14.00,2013-07-04 23:51:00,
2013-07-04 18:56:00,80.4,61.7,29.53,East,90,0.0,0.0,53,0.00,,---,0.00,VWS V14.00,2013-07-04 23:56:00,
2013-07-04 19:01:00,80.4,61.7,29.53,SSE,158,0.0,0.0,53,0.00,,---,0.00,VWS V14.00,2013-07-05 00:01:00,
2013-07-04 19:06:00,80.2,61.5,29.53,ESE,112,0.0,0.0,53,0.00,,---,0.00,VWS V14.00,2013-07-05 00:06:00,
2013-07-04 19:11:00,80.2,61.5,29.53,ESE,112,0.0,0.0,53,0.00,,---,0.00,VWS V14.00,2013-07-05 00:11:00,
2013-07-04 19:16:00,79.8,61.7,29.53,East,90,0.0,0.0,54,0.00,,---,0.00,VWS V14.00,2013-07-05 00:16:00,
2013-07-04 19:21:00,79.7,61.6,29.53,East,90,0.0,0.0,54,0.00,,---,0.00,VWS V14.00,2013-07-05 00:21:00,
2013-07-04 19:26:00,79.5,61.4,29.53,ESE,112,0.0,0.0,54,0.00,,---,0.00,VWS V14.00,2013-07-05 00:26:00,
2013-07-04 19:31:00,79.3,61.2,29.53,East,90,0.0,0.0,54,0.00,,---,0.00,VWS V14.00,2013-07-05 00:31:00,
2013-07-04 19:36:00,79.1,61.6,29.53,SE,135,0.0,0.0,55,0.00,,---,0.00,VWS V14.00,2013-07-05 00:36:00,
2013-07-04 19:41:00,78.9,61.4,29.53,ESE,112,0.0,0.0,55,0.00,,---,0.00,VWS V14.00,2013-07-05 00:41:00,
2013-07-04 19:46:00,78.6,61.1,29.53,SSE,158,0.0,0.0,55,0.00,,---,0.00,VWS V14.00,2013-07-05 00:46:00,
2013-07-04 19:51:00,78.6,61.1,29.53,SE,135,0.0,0.0,55,0.00,,---,0.00,VWS V14.00,2013-07-05 00:51:00,
2013-07-04 19:56:00,78.0,61.0,29.53,SE,135,0.0,0.0,56,0.00,,---,0.00,VWS V14.00,2013-07-05 00:56:00,
2013-07-04 20:01:00,77.9,61.0,29.53,SSE,158,0.0,0.0,56,0.00,,---,0.00,VWS V14.00,2013-07-05 01:01:00,
2013-07-04 20:06:00,77.7,60.8,29.53,SSE,158,0.0,0.0,56,0.00,,---,0.00,VWS V14.00,2013-07-05 01:06:00,
2013-07-04 20:11:00,77.5,60.6,29.54,SSE,158,0.0,0.0,56,0.00,,---,0.00,VWS V14.00,2013-07-05 01:11:00,
2013-07-04 20:16:00,77.1,60.7,29.54,SSE,158,0.0,0.0,57,0.00,,---,0.00,VWS V14.00,2013-07-05 01:16:00,
2013-07-04 20:21:00,77.0,60.6,29.53,SSE,158,0.0,0.0,57,0.00,,---,0.00,VWS V14.00,2013-07-05 01:21:00,
2013-07-04 20:26:00,76.8,60.4,29.54,SSE,158,0.0,0.0,57,0.00,,---,0.00,VWS V14.00,2013-07-05 01:26:00,
2013-07-04 20:31:00,76.6,60.2,29.54,ESE,112,0.0,0.0,57,0.00,,---,0.00,VWS V14.00,2013-07-05 01:31:00,
2013-07-04 20:36:00,76.4,60.5,29.54,ESE,112,0.0,0.0,58,0.00,,---,0.00,VWS V14.00,2013-07-05 01:36:00,
2013-07-04 20:41:00,76.1,60.3,29.54,ESE,112,0.0,0.0,58,0.00,,---,0.00,VWS V14.00,2013-07-05 01:41:00,
2013-07-04 20:46:00,75.9,60.1,29.54,ESE,112,0.0,0.0,58,0.00,,---,0.00,VWS V14.00,2013-07-05 01:46:00,
2013-07-04 20:51:00,75.7,59.9,29.54,SSE,158,0.0,0.0,58,0.00,,---,0.00,VWS V14.00,2013-07-05 01:51:00,
2013-07-04 20:56:00,75.5,59.7,29.54,SSE,158,0.0,0.0,58,0.00,,---,0.00,VWS V14.00,2013-07-05 01:56:00,
2013-07-04 21:01:00,75.3,59.5,29.55,SSE,158,0.0,0.0,58,0.00,,---,0.00,VWS V14.00,2013-07-05 02:01:00,
2013-07-04 21:06:00,75.0,59.2,29.55,SE,135,0.0,0.0,58,0.00,,---,0.00,VWS V14.00,2013-07-05 02:06:00,
2013-07-04 21:11:00,74.8,59.0,29.55,SE,135,0.0,0.0,58,0.00,,---,0.00,VWS V14.00,2013-07-05 02:11:00,
2013-07-04 21:16:00,74.8,59.0,29.54,SSE,158,0.0,0.0,58,0.00,,---,0.00,VWS V14.00,2013-07-05 02:16:00,
2013-07-04 21:21:00,74.4,58.7,29.55,SE,135,0.0,0.0,58,0.00,,---,0.00,VWS V14.00,2013-07-05 02:21:00,
2013-07-04 21:26:00,74.3,59.1,29.55,SE,135,0.0,0.0,59,0.00,,---,0.00,VWS V14.00,2013-07-05 02:26:00,
2013-07-04 21:31:00,74.3,59.1,29.56,SE,135,0.0,0.0,59,0.00,,---,0.00,VWS V14.00,2013-07-05 02:31:00,
2013-07-04 21:36:00,74.1,58.9,29.56,SE,135,0.0,0.0,59,0.00,,---,0.00,VWS V14.00,2013-07-05 02:36:00,
2013-07-04 21:41:00,73.9,58.7,29.56,SE,135,0.0,0.0,59,0.00,,---,0.00,VWS V14.00,2013-07-05 02:41:00,
2013-07-04 21:46:00,73.9,58.7,29.56,SE,135,0.0,0.0,59,0.00,,---,0.00,VWS V14.00,2013-07-05 02:46:00,
2013-07-04 21:51:00,73.7,58.5,29.55,SE,135,0.0,0.0,59,0.00,,---,0.00,VWS V14.00,2013-07-05 02:51:00,
2013-07-04 21:56:00,73.5,58.3,29.55,SE,135,0.0,0.0,59,0.00,,---,0.00,VWS V14.00,2013-07-05 02:56:00,
2013-07-04 22:01:00,73.2,58.0,29.56,SE,135,0.0,0.0,59,0.00,,---,0.00,VWS V14.00,2013-07-05 03:01:00,
2013-07-04 22:06:00,73.2,58.5,29.56,North,0,0.0,0.0,60,0.00,,---,0.00,VWS V14.00,2013-07-05 03:06:00,
2013-07-04 22:11:00,73.0,58.3,29.55,SE,135,0.0,0.0,60,0.00,,---,0.00,VWS V14.00,2013-07-05 03:11:00,
2013-07-04 22:16:00,72.6,57.9,29.56,SE,135,0.0,0.0,60,0.00,,---,0.00,VWS V14.00,2013-07-05 03:16:00,
2013-07-04 22:21:00,72.5,57.8,29.56,SE,135,0.0,0.0,60,0.00,,---,0.00,VWS V14.00,2013-07-05 03:21:00,
2013-07-04 22:26:00,72.3,58.1,29.56,SE,135,0.0,0.0,61,0.00,,---,0.00,VWS V14.00,2013-07-05 03:26:00,
2013-07-04 22:31:00,72.3,58.6,29.56,SE,135,0.0,0.0,62,0.00,,---,0.00,VWS V14.00,2013-07-05 03:31:00,
2013-07-04 22:36:00,71.9,58.2,29.56,SE,135,0.0,0.0,62,0.00,,---,0.00,VWS V14.00,2013-07-05 03:36:00,
2013-07-04 22:41:00,71.6,57.9,29.56,SE,135,0.0,0.0,62,0.00,,---,0.00,VWS V14.00,2013-07-05 03:41:00,
2013-07-04 22:46:00,71.2,58.0,29.56,SE,135,0.0,0.0,63,0.00,,---,0.00,VWS V14.00,2013-07-05 03:46:00,
2013-07-04 22:51:00,70.8,58.0,29.56,SE,135,0.0,0.0,64,0.00,,---,0.00,VWS V14.00,2013-07-05 03:51:00,
2013-07-04 22:56:00,70.8,58.0,29.56,SE,135,0.0,0.0,64,0.00,,---,0.00,VWS V14.00,2013-07-05 03:56:00,
2013-07-04 23:01:00,70.7,57.9,29.56,SE,135,0.0,0.0,64,0.00,,---,0.00,VWS V14.00,2013-07-05 04:01:00,
2013-07-04 23:02:00,70.7,57.9,29.56,SE,135,0.0,0.0,64,0.00,,---,0.00,VWS V14.00,2013-07-05 04:02:00,
2013-07-04 23:03:00,70.5,57.8,29.56,SE,135,0.0,0.0,64,0.00,,---,0.00,VWS V14.00,2013-07-05 04:03:00,
2013-07-04 23:06:00,70.5,57.8,29.56,SE,135,0.0,0.0,64,0.00,,---,0.00,VWS V14.00,2013-07-05 04:06:00,
2013-07-04 23:09:00,70.5,57.8,29.56,SE,135,0.0,0.0,64,0.00,,---,0.00,VWS V14.00,2013-07-05 04:09:00,
2013-07-04 23:14:00,70.3,57.6,29.56,SE,135,0.0,0.0,64,0.00,,---,0.00,VWS V14.00,2013-07-05 04:14:00,
2013-07-04 23:19:00,70.3,58.0,29.56,SE,135,0.0,0.0,65,0.00,,---,0.00,VWS V14.00,2013-07-05 04:19:00,
2013-07-04 23:24:00,70.3,58.0,29.57,SE,135,0.0,0.0,65,0.00,,---,0.00,VWS V14.00,2013-07-05 04:24:00,
2013-07-04 23:29:00,70.1,57.8,29.56,SE,135,0.0,0.0,65,0.00,,---,0.00,VWS V14.00,2013-07-05 04:29:00,
2013-07-04 23:34:00,70.1,58.2,29.56,SE,135,0.0,0.0,66,0.00,,---,0.00,VWS V14.00,2013-07-05 04:34:00,
2013-07-04 23:39:00,69.9,58.0,29.56,SE,135,0.0,0.0,66,0.00,,---,0.00,VWS V14.00,2013-07-05 04:39:00,
2013-07-04 23:44:00,69.9,58.0,29.56,SE,135,0.0,0.0,66,0.00,,---,0.00,VWS V14.00,2013-07-05 04:44:00,
2013-07-04 23:49:00,69.8,57.9,29.56,SE,135,0.0,0.0,66,0.00,,---,0.00,VWS V14.00,2013-07-05 04:49:00,
2013-07-04 23:54:00,69.6,57.8,29.56,SE,135,0.0,0.0,66,0.00,,---,0.00,VWS V14.00,2013-07-05 04:54:00,
2013-07-04 23:59:00,69.6,58.2,29.56,SE,135,0.0,0.0,67,0.00,,---,0.00,VWS V14.00,2013-07-05 04:59:00,